Time;durP1;ratioP1;P1;durP2;ratioP2;P2;SDS_P1;SDS_P2;PMS_P1;PMS_P2;Temp;Humidity;BMP_temperature;BMP_pressure;BME280_temperature;BME280_humidity;BME280_pressure;Samples;Min_cycle;Max_cycle;Signal;HPM_P1;HPM_P2
2022/06/01 00:01:08;;;;;;;2.23;1.97;;;20.20;51.30;21.60;100562.00;;;;4991506;28;20197;-46
2022/06/01 00:03:38;;;;;;;2.10;1.90;;;20.20;51.30;21.60;100558.00;;;;4991456;28;20181;-46
2022/06/01 00:06:04;;;;;;;2.10;2.00;;;20.20;51.30;21.60;100559.00;;;;4991600;28;20778;-46
2022/06/01 00:08:30;;;;;;;2.07;1.83;;;20.20;51.30;21.60;100548.00;;;;4991001;28;20263;-48
2022/06/01 00:10:57;;;;;;;2.10;2.00;;;20.10;51.30;21.60;100547.00;;;;4991457;28;20196;-46
2022/06/01 00:13:23;;;;;;;2.17;1.93;;;20.10;51.30;21.60;100542.00;;;;4991543;28;20190;-46
2022/06/01 00:15:48;;;;;;;1.87;1.77;;;20.10;51.30;21.60;100544.00;;;;4991581;28;20184;-45
2022/06/01 00:18:14;;;;;;;2.00;1.90;;;20.10;51.40;21.50;100539.00;;;;4991188;28;20641;-47
2022/06/01 00:20:40;;;;;;;2.00;1.90;;;20.10;51.40;21.50;100540.00;;;;4991207;28;20271;-46
2022/06/01 00:23:06;;;;;;;1.80;1.70;;;20.10;51.40;21.50;100535.00;;;;4989924;28;20711;-46
2022/06/01 00:25:32;;;;;;;1.90;1.80;;;20.00;51.40;21.50;100532.00;;;;4991266;28;20172;-47
2022/06/01 00:27:58;;;;;;;2.00;1.80;;;20.00;51.40;21.50;100536.00;;;;4990923;28;20239;-47
2022/06/01 00:30:23;;;;;;;1.70;1.60;;;20.10;51.50;21.50;100529.00;;;;4992721;28;20657;-47
2022/06/01 00:32:49;;;;;;;3.10;1.93;;;20.00;51.50;21.40;100533.00;;;;4993961;28;20187;-47
2022/06/01 00:35:16;;;;;;;1.80;1.70;;;20.00;51.50;21.40;100537.00;;;;4992245;28;20187;-47
2022/06/01 00:37:42;;;;;;;1.90;1.80;;;20.00;51.50;21.40;100535.00;;;;4989584;28;20312;-46
2022/06/01 00:40:09;;;;;;;1.60;1.50;;;20.00;51.50;21.40;100533.00;;;;4990858;28;20299;-47
2022/06/01 00:42:36;;;;;;;2.00;1.80;;;20.00;51.60;21.30;100532.00;;;;4991188;28;20805;-47
2022/06/01 00:45:02;;;;;;;1.90;1.80;;;20.00;51.50;21.40;100537.00;;;;4990855;28;20228;-47
2022/06/01 00:47:28;;;;;;;1.77;1.67;;;19.90;51.50;21.40;100539.00;;;;4990701;28;20169;-48
2022/06/01 00:50:15;;;;;;;1.90;1.80;;;19.90;51.50;21.40;100545.00;;;;4990662;28;20195;-46
2022/06/01 00:52:46;;;;;;;1.80;1.70;;;19.90;51.50;21.30;100553.00;;;;4989545;28;20184;-46
2022/06/01 00:55:24;;;;;;;1.80;1.70;;;19.90;51.60;21.30;100539.00;;;;4989207;28;20173;-46
2022/06/01 00:58:00;;;;;;;1.80;1.70;;;19.90;51.60;21.30;100556.00;;;;4973469;28;20169;-46
2022/06/01 01:00:28;;;;;;;1.80;1.70;;;19.90;51.60;21.30;100551.00;;;;4990441;28;20299;-47
2022/06/01 01:02:55;;;;;;;2.00;1.90;;;19.80;51.50;21.30;100546.00;;;;4990616;28;20173;-46
2022/06/01 01:05:21;;;;;;;2.00;1.90;;;19.80;51.60;21.30;100537.00;;;;4973361;28;20315;-46
2022/06/01 01:07:47;;;;;;;2.10;1.90;;;19.80;51.60;21.20;100541.00;;;;4989010;28;20290;-47
2022/06/01 01:10:14;;;;;;;1.90;1.80;;;19.80;51.60;21.20;100542.00;;;;4972440;28;20274;-47
2022/06/01 01:12:58;;;;;;;1.70;1.60;;;19.80;51.60;21.20;100551.00;;;;4990229;28;20183;-46
2022/06/01 01:15:40;;;;;;;1.80;1.70;;;19.80;51.60;21.20;100549.00;;;;4990309;28;20180;-47
2022/06/01 01:18:11;;;;;;;1.73;1.63;;;19.80;51.60;21.10;100548.00;;;;4989180;28;20203;-47
2022/06/01 01:21:02;;;;;;;2.00;1.87;;;19.80;51.60;21.10;100553.00;;;;4973417;28;20821;-48
2022/06/01 01:23:51;;;;;;;1.80;1.70;;;19.70;51.60;21.10;100552.00;;;;4989062;28;20235;-45
2022/06/01 01:26:17;;;;;;;1.80;1.70;;;19.70;51.70;21.10;100554.00;;;;4988994;28;20158;-47
2022/06/01 01:28:43;;;;;;;1.87;1.77;;;19.70;51.70;21.00;100560.00;;;;4972301;28;20803;-48
2022/06/01 01:31:17;;;;;;;1.80;1.70;;;19.70;51.70;21.00;100547.00;;;;4989643;28;20209;-47
2022/06/01 01:33:43;;;;;;;1.90;1.80;;;19.70;51.70;21.00;100543.00;;;;4988811;28;20164;-46
2022/06/01 01:36:10;;;;;;;1.90;1.80;;;19.70;51.70;21.00;100545.00;;;;4989671;28;20204;-46
2022/06/01 01:38:40;;;;;;;1.80;1.70;;;19.70;51.70;20.90;100541.00;;;;4988779;28;20172;-46
2022/06/01 01:41:27;;;;;;;1.60;1.50;;;19.70;51.70;20.90;100538.00;;;;4988486;28;20284;-46
2022/06/01 01:44:30;;;;;;;1.90;1.80;;;19.70;51.70;20.90;100542.00;;;;4989293;28;20200;-46
2022/06/01 01:46:56;;;;;;;1.80;1.70;;;19.60;51.60;20.90;100539.00;;;;4988548;28;20187;-46
2022/06/01 01:49:31;;;;;;;1.70;1.60;;;19.60;51.60;20.90;100488.00;;;;4989519;28;20222;-46
2022/06/01 01:52:02;;;;;;;1.90;1.80;;;19.60;51.70;20.80;100538.00;;;;4990541;28;20200;-46
2022/06/01 01:54:51;;;;;;;1.80;1.70;;;19.60;51.70;20.80;100545.00;;;;4990826;28;20171;-46
2022/06/01 01:58:20;;;;;;;1.90;1.80;;;19.60;51.70;20.80;100546.00;;;;4988068;28;20169;-46
2022/06/01 02:00:51;;;;;;;1.90;1.80;;;19.60;51.70;20.80;100542.00;;;;4968894;28;20227;-47
2022/06/01 02:03:25;;;;;;;1.80;1.70;;;19.60;51.70;20.80;100548.00;;;;4988664;28;20164;-46
2022/06/01 02:06:17;;;;;;;1.70;1.60;;;19.50;51.70;20.70;100531.00;;;;4988082;28;20214;-47
2022/06/01 02:08:48;;;;;;;1.60;1.50;;;19.50;51.90;20.70;100544.00;;;;4988170;28;20211;-47
2022/06/01 02:14:46;;;;;;;1.80;1.70;;;19.50;52.00;20.70;100541.00;;;;4984952;28;20272;-47
2022/06/01 02:17:51;;;;;;;1.80;1.70;;;19.40;51.90;20.70;100536.00;;;;4983118;28;20220;-47
2022/06/01 02:20:42;;;;;;;1.73;1.63;;;19.40;51.90;20.60;100534.00;;;;4995006;28;20230;-46
2022/06/01 02:23:11;;;;;;;1.80;1.70;;;19.40;51.90;20.60;100534.00;;;;4988799;28;20657;-45
2022/06/01 02:25:38;;;;;;;1.80;1.70;;;19.40;51.90;20.60;100534.00;;;;4971650;28;20179;-46
2022/06/01 02:28:04;;;;;;;1.40;1.40;;;19.40;51.90;20.60;100533.00;;;;4987161;28;20664;-46
2022/06/01 02:30:33;;;;;;;1.80;1.70;;;19.40;51.90;20.60;100532.00;;;;4986840;28;20196;-46
2022/06/01 02:33:00;;;;;;;1.70;1.60;;;19.40;52.10;20.60;100530.00;;;;4970063;28;20622;-46
2022/06/01 02:35:26;;;;;;;1.90;1.80;;;19.30;52.00;20.60;100540.00;;;;4970379;28;20589;-46
2022/06/01 02:37:55;;;;;;;1.70;1.60;;;19.30;51.90;20.60;100522.00;;;;4953768;28;20219;-45
2022/06/01 02:40:23;;;;;;;1.87;1.77;;;19.30;52.00;20.60;100532.00;;;;4970925;28;20228;-47
2022/06/01 02:42:50;;;;;;;1.70;1.60;;;19.30;52.00;20.50;100543.00;;;;4986104;28;20194;-46
2022/06/01 02:45:20;;;;;;;1.70;1.60;;;19.30;51.90;20.50;100550.00;;;;4988212;28;20169;-47
2022/06/01 02:47:46;;;;;;;1.70;1.60;;;19.30;51.80;20.50;100553.00;;;;4988501;28;20180;-47
2022/06/01 02:50:17;;;;;;;1.90;1.70;;;19.30;51.80;20.50;100552.00;;;;4971273;28;20872;-47
2022/06/01 02:52:43;;;;;;;4.63;1.90;;;19.30;51.80;20.50;100558.00;;;;4988702;28;20822;-47
2022/06/01 02:55:09;;;;;;;2.03;1.80;;;19.30;52.00;20.50;100560.00;;;;4988496;28;20271;-47
2022/06/01 02:57:38;;;;;;;1.73;1.63;;;19.20;52.00;20.40;100556.00;;;;4988183;28;20289;-47
2022/06/01 03:00:17;;;;;;;1.70;1.60;;;19.20;52.00;20.40;100558.00;;;;4987050;28;20616;-47
2022/06/01 03:02:44;;;;;;;6.63;1.60;;;19.20;51.90;20.40;100571.00;;;;4988349;28;20180;-47
2022/06/01 03:05:11;;;;;;;2.53;1.70;;;19.30;51.90;20.40;100560.00;;;;4988191;28;20172;-47
2022/06/01 03:07:36;;;;;;;1.80;1.70;;;19.20;51.80;20.50;100565.00;;;;4986539;28;20204;-46
2022/06/01 03:10:02;;;;;;;1.70;1.60;;;19.20;51.70;20.40;100569.00;;;;4987922;28;20203;-47
2022/06/01 03:12:28;;;;;;;4.33;1.60;;;19.20;51.70;20.40;100567.00;;;;4988033;28;20180;-46
2022/06/01 03:14:53;;;;;;;1.80;1.70;;;19.20;51.70;20.40;100558.00;;;;4988201;28;20187;-47
2022/06/01 03:17:19;;;;;;;1.80;1.70;;;19.20;51.70;20.40;100568.00;;;;4988016;28;20238;-47
2022/06/01 03:19:45;;;;;;;2.63;1.80;;;19.20;51.70;20.40;100567.00;;;;4988158;28;20709;-45
2022/06/01 03:22:11;;;;;;;2.60;1.60;;;19.20;51.80;20.40;100573.00;;;;4987652;28;20204;-46
2022/06/01 03:24:36;;;;;;;1.70;1.60;;;19.10;51.80;20.40;100581.00;;;;4986804;28;20661;-46
2022/06/01 03:27:02;;;;;;;1.90;1.60;;;19.20;51.90;20.40;100580.00;;;;4988104;28;20184;-46
2022/06/01 03:29:28;;;;;;;3.07;1.60;;;19.20;52.10;20.40;100581.00;;;;4987956;28;20208;-47
2022/06/01 03:31:54;;;;;;;2.77;1.60;;;19.20;52.60;20.40;100581.00;;;;4989376;28;20192;-47
2022/06/01 03:34:19;;;;;;;4.90;1.87;;;19.20;52.50;20.30;100582.00;;;;4991869;28;20195;-46
2022/06/01 03:36:46;;;;;;;3.93;1.80;;;19.10;52.50;20.30;100581.00;;;;4992326;28;20184;-47
2022/06/01 03:39:11;;;;;;;4.70;2.00;;;19.10;52.40;20.30;100578.00;;;;4991844;28;20204;-47
2022/06/01 03:41:37;;;;;;;1.70;1.60;;;19.10;52.40;20.30;100582.00;;;;4992073;28;20203;-47
2022/06/01 03:46:47;;;;;;;3.07;1.93;;;19.10;52.20;20.30;100579.00;;;;4980325;28;20302;-46
2022/06/01 03:49:13;;;;;;;1.80;1.70;;;19.00;52.10;20.30;100593.00;;;;4990830;28;20188;-46
2022/06/01 03:51:39;;;;;;;2.10;1.90;;;19.00;52.20;20.20;100586.00;;;;4991496;28;20200;-47
2022/06/01 03:54:06;;;;;;;2.00;1.80;;;19.00;52.20;20.20;100589.00;;;;4991662;28;20554;-48
2022/06/01 03:56:32;;;;;;;1.97;1.87;;;19.00;52.30;20.20;100597.00;;;;4991437;28;20825;-45
2022/06/01 03:58:58;;;;;;;2.20;2.00;;;19.00;52.30;20.20;100592.00;;;;4991149;28;20551;-45
2022/06/01 04:01:24;;;;;;;1.80;1.70;;;18.90;52.20;20.20;100598.00;;;;4990998;28;20284;-45
2022/06/01 04:03:50;;;;;;;1.90;1.80;;;18.90;52.20;20.10;100592.00;;;;4991399;28;20176;-47
2022/06/01 04:06:15;;;;;;;2.10;1.90;;;18.90;52.20;20.10;100594.00;;;;4991223;28;20171;-48
2022/06/01 04:08:41;;;;;;;2.00;1.90;;;18.90;52.30;20.10;100594.00;;;;4990560;28;20173;-47
2022/06/01 04:11:07;;;;;;;3.10;2.00;;;18.90;52.30;20.10;100595.00;;;;4990490;28;20192;-45
2022/06/01 04:13:33;;;;;;;2.00;1.80;;;18.90;52.30;20.10;100606.00;;;;4990585;28;20172;-46
2022/06/01 04:15:59;;;;;;;4.80;1.90;;;18.80;52.30;20.10;100606.00;;;;4991031;28;20767;-46
2022/06/01 04:18:24;;;;;;;2.70;1.90;;;18.80;52.30;20.00;100602.00;;;;4989254;28;20182;-46
2022/06/01 04:20:51;;;;;;;3.20;1.80;;;18.80;52.20;20.00;100605.00;;;;4989095;28;20208;-47
2022/06/01 04:23:17;;;;;;;1.87;1.73;;;18.80;52.30;20.00;100601.00;;;;4989540;28;20603;-46
2022/06/01 04:25:42;;;;;;;2.67;2.20;;;18.80;52.50;20.00;100599.00;;;;4990865;28;20183;-50
2022/06/01 04:28:08;;;;;;;2.40;2.20;;;18.80;52.50;20.00;100607.00;;;;4990595;28;20215;-50
2022/06/01 04:30:34;;;;;;;3.03;2.30;;;18.70;52.20;19.90;100607.00;;;;4988975;28;20955;-49
2022/06/01 04:33:00;;;;;;;2.73;2.53;;;18.70;52.30;19.90;100608.00;;;;4990981;28;20729;-49
2022/06/01 04:35:26;;;;;;;3.33;2.60;;;18.80;52.20;19.90;100603.00;;;;4973175;28;20266;-50
2022/06/01 04:37:52;;;;;;;3.73;2.40;;;18.70;52.10;19.90;100608.00;;;;4990539;28;20311;-50
2022/06/01 04:40:18;;;;;;;4.83;3.00;;;18.70;52.00;19.90;100611.00;;;;4990214;28;20211;-50
2022/06/01 04:42:44;;;;;;;4.57;2.60;;;18.70;52.00;19.90;100618.00;;;;4990400;28;20230;-48
2022/06/01 04:45:12;;;;;;;3.00;2.70;;;18.70;51.90;19.90;100620.00;;;;4990369;28;20181;-50
2022/06/01 04:47:38;;;;;;;2.73;2.50;;;18.70;51.80;19.80;100622.00;;;;4990439;28;20164;-50
2022/06/01 04:50:04;;;;;;;2.97;2.50;;;18.60;51.80;19.80;100625.00;;;;4990253;28;20172;-51
2022/06/01 04:52:30;;;;;;;3.97;2.60;;;18.60;52.00;19.80;100613.00;;;;4990062;28;20261;-48
2022/06/01 04:54:55;;;;;;;3.70;2.37;;;18.50;52.00;19.80;100620.00;;;;4990129;28;20180;-51
2022/06/01 04:57:21;;;;;;;2.90;2.20;;;18.50;52.20;19.70;100605.00;;;;4989831;28;20635;-51
2022/06/01 04:59:47;;;;;;;2.70;2.40;;;18.40;52.30;19.70;100613.00;;;;4989982;28;20207;-50
2022/06/01 05:02:14;;;;;;;3.67;2.50;;;18.40;52.30;19.70;100610.00;;;;4989937;28;20200;-50
2022/06/01 05:04:40;;;;;;;3.43;2.40;;;18.40;52.30;19.60;100612.00;;;;4988853;28;20172;-51
2022/06/01 05:07:06;;;;;;;2.57;2.37;;;18.40;52.40;19.60;100611.00;;;;4990074;28;20266;-51
2022/06/01 05:09:31;;;;;;;2.73;2.47;;;18.40;52.40;19.60;100602.00;;;;4989761;28;20175;-51
2022/06/01 05:11:57;;;;;;;2.40;2.20;;;18.40;52.40;19.60;100529.00;;;;4989592;28;20211;-54
2022/06/01 05:14:23;;;;;;;3.77;2.60;;;18.30;52.30;19.60;100615.00;;;;4989746;28;20187;-48
2022/06/01 05:16:49;;;;;;;3.60;2.50;;;18.40;52.60;19.60;100607.00;;;;4989863;28;20183;-49
2022/06/01 05:19:14;;;;;;;3.10;2.80;;;18.30;53.10;19.60;100604.00;;;;4988058;28;20200;-50
2022/06/01 05:21:40;;;;;;;3.00;2.80;;;18.30;53.20;19.60;100611.00;;;;4989422;28;20830;-51
2022/06/01 05:24:07;;;;;;;3.60;2.90;;;18.30;53.30;19.60;100608.00;;;;4989886;28;20176;-50
2022/06/01 05:26:32;;;;;;;3.87;3.23;;;18.30;54.00;19.50;100608.00;;;;4989955;28;20176;-51
2022/06/01 05:28:58;;;;;;;3.27;2.97;;;18.30;53.50;19.50;100610.00;;;;4989017;28;20237;-50
2022/06/01 05:31:24;;;;;;;4.37;3.20;;;18.30;53.50;19.50;100606.00;;;;4989720;28;20196;-51
2022/06/01 05:33:49;;;;;;;3.30;3.00;;;18.30;53.50;19.50;100606.00;;;;4989649;28;20177;-49
2022/06/01 05:36:16;;;;;;;3.40;2.80;;;18.20;53.60;19.50;100613.00;;;;4989902;28;20183;-50
2022/06/01 05:38:42;;;;;;;3.90;3.50;;;18.20;53.50;19.50;100619.00;;;;4988884;28;20179;-52
2022/06/01 05:41:08;;;;;;;3.73;3.33;;;18.10;53.70;19.50;100616.00;;;;4989133;28;20199;-49
2022/06/01 05:43:34;;;;;;;3.43;3.13;;;18.20;53.90;19.50;100611.00;;;;4988276;28;20202;-50
2022/06/01 05:46:00;;;;;;;5.93;3.70;;;18.10;54.10;19.50;100621.00;;;;4989428;28;20176;-50
2022/06/01 05:48:25;;;;;;;4.00;3.60;;;17.90;54.60;19.50;100626.00;;;;4988412;28;20716;-50
2022/06/01 05:50:51;;;;;;;4.47;3.50;;;17.80;54.70;19.40;100623.00;;;;4989049;28;20194;-51
2022/06/01 05:53:17;;;;;;;4.13;3.53;;;17.80;55.10;19.40;100624.00;;;;4988750;28;20183;-51
2022/06/01 05:55:42;;;;;;;5.00;3.53;;;17.90;54.90;19.40;100628.00;;;;4989234;28;20190;-50
2022/06/01 05:58:19;;;;;;;4.47;3.80;;;17.80;55.40;19.40;100625.00;;;;4987071;28;20271;-50
2022/06/01 06:00:45;;;;;;;4.63;3.60;;;17.70;55.10;19.30;100624.00;;;;4988493;28;20693;-50
2022/06/01 06:03:11;;;;;;;4.20;3.80;;;17.80;55.10;19.30;100628.00;;;;4989441;28;20168;-52
2022/06/01 06:08:22;;;;;;;4.73;3.87;;;17.70;55.10;19.30;100635.00;;;;4990022;28;20270;-51
2022/06/01 06:10:47;;;;;;;6.43;3.90;;;17.70;54.90;19.20;100638.00;;;;4990027;28;20223;-50
2022/06/01 06:13:13;;;;;;;3.63;3.23;;;17.80;55.10;19.20;100645.00;;;;4990254;28;20185;-52
2022/06/01 06:15:39;;;;;;;3.93;3.57;;;17.80;55.10;19.20;100641.00;;;;4990464;28;20204;-49
2022/06/01 06:18:05;;;;;;;5.23;3.90;;;17.80;55.20;19.20;100642.00;;;;4990240;28;20179;-50
2022/06/01 06:20:30;;;;;;;6.30;3.33;;;17.80;55.10;19.20;100643.00;;;;4989721;28;20297;-49
2022/06/01 06:22:56;;;;;;;4.70;3.40;;;17.80;55.00;19.20;100644.00;;;;4990058;28;20173;-48
2022/06/01 06:25:22;;;;;;;5.97;3.93;;;17.80;55.00;19.20;100645.00;;;;4990102;28;20186;-50
2022/06/01 06:27:47;;;;;;;5.43;3.70;;;17.80;55.20;19.10;100650.00;;;;5004660;28;20180;-50
2022/06/01 06:30:18;;;;;;;5.63;3.63;;;17.70;55.30;19.10;100646.00;;;;4989678;28;20179;-52
2022/06/01 06:32:44;;;;;;;5.60;3.87;;;17.60;55.20;19.10;100649.00;;;;4990085;28;20629;-51
2022/06/01 06:35:10;;;;;;;4.43;3.53;;;17.70;55.60;19.00;100646.00;;;;4990190;28;20389;-49
2022/06/01 06:37:35;;;;;;;6.17;3.73;;;17.60;55.60;19.00;100637.00;;;;4990214;28;20215;-49
2022/06/01 06:40:01;;;;;;;4.80;3.40;;;17.60;55.50;19.00;100641.00;;;;4989353;28;20198;-50
2022/06/01 06:42:27;;;;;;;3.93;3.53;;;17.60;55.80;19.00;100640.00;;;;4988419;28;20175;-49
2022/06/01 06:44:53;;;;;;;5.37;4.03;;;17.70;55.70;19.00;100637.00;;;;4989665;28;20182;-50
2022/06/01 06:47:19;;;;;;;3.77;3.33;;;17.60;55.80;19.00;100641.00;;;;4989462;28;20187;-49
2022/06/01 06:49:45;;;;;;;5.17;3.40;;;17.70;55.60;18.90;100639.00;;;;4989334;28;20216;-49
2022/06/01 06:52:10;;;;;;;4.33;3.80;;;17.70;55.60;18.90;100643.00;;;;4989572;28;20242;-50
2022/06/01 06:54:36;;;;;;;4.67;3.43;;;17.60;55.70;18.90;100635.00;;;;4989661;28;20173;-52
2022/06/01 06:57:02;;;;;;;4.00;3.60;;;17.50;55.80;18.90;100629.00;;;;4990507;28;20505;-52
2022/06/01 06:59:27;;;;;;;4.37;3.70;;;17.50;55.60;18.90;100640.00;;;;5007660;28;20191;-50
2022/06/01 07:01:53;;;;;;;4.83;3.80;;;17.50;55.80;18.90;100645.00;;;;5006903;28;20207;-52
2022/06/01 07:04:19;;;;;;;6.10;3.70;;;17.40;55.90;18.80;100642.00;;;;4992546;28;20181;-50
2022/06/01 07:06:45;;;;;;;7.50;3.70;;;17.40;56.00;18.80;100639.00;;;;4989324;28;20727;-50
2022/06/01 07:09:10;;;;;;;6.67;3.90;;;17.50;56.10;18.80;100640.00;;;;4989396;28;20755;-51
2022/06/01 07:11:38;;;;;;;4.47;3.70;;;17.40;56.00;18.80;100633.00;;;;4989614;28;20567;-50
2022/06/01 07:14:04;;;;;;;5.30;3.60;;;17.40;56.10;18.70;100645.00;;;;4989440;28;20191;-48
2022/06/01 07:16:32;;;;;;;5.37;3.80;;;17.40;55.90;18.80;100640.00;;;;4945884;28;20184;-51
2022/06/01 07:18:59;;;;;;;4.67;3.40;;;17.40;56.20;18.80;100652.00;;;;4962708;28;20179;-50
2022/06/01 07:21:25;;;;;;;4.17;3.50;;;17.40;56.00;18.60;100655.00;;;;4991319;28;20347;-52
2022/06/01 07:23:51;;;;;;;4.47;3.50;;;17.40;55.90;18.70;100666.00;;;;4996104;28;20177;-51
2022/06/01 07:26:32;;;;;;;4.57;3.23;;;17.30;56.00;18.70;100658.00;;;;4990532;28;20227;-49
2022/06/01 07:28:58;;;;;;;4.90;3.47;;;17.30;55.80;18.70;100661.00;;;;4987775;28;20162;-50
2022/06/01 07:31:24;;;;;;;4.70;3.30;;;17.40;55.70;18.70;100675.00;;;;4989721;28;20189;-50
2022/06/01 07:33:51;;;;;;;4.07;3.13;;;17.50;55.60;18.70;100672.00;;;;4989475;28;20172;-50
2022/06/01 07:36:17;;;;;;;3.40;3.10;;;17.40;55.50;18.70;100669.00;;;;4989085;28;20789;-49
2022/06/01 07:44:37;;;;;;;3.60;3.30;;;17.30;55.70;18.60;100673.00;;;;4988108;28;20180;-48
2022/06/01 07:47:04;;;;;;;3.77;2.97;;;17.30;55.80;18.60;100671.00;;;;4989047;28;20196;-50
2022/06/01 07:49:29;;;;;;;3.60;3.27;;;17.30;55.70;18.60;100666.00;;;;4988897;28;20235;-52
2022/06/01 07:51:55;;;;;;;4.40;3.30;;;17.30;55.70;18.60;100670.00;;;;4988978;28;20198;-51
2022/06/01 07:54:21;;;;;;;3.40;2.87;;;17.30;55.50;18.60;100668.00;;;;4988895;28;20187;-49
2022/06/01 07:56:47;;;;;;;5.17;3.53;;;17.40;55.30;18.60;100681.00;;;;4988989;28;20208;-52
2022/06/01 07:59:13;;;;;;;4.47;2.93;;;17.40;55.40;18.60;100672.00;;;;4971921;28;20209;-52
2022/06/01 08:01:38;;;;;;;3.43;2.90;;;17.30;55.60;18.50;100671.00;;;;4968990;28;20799;-51
2022/06/01 08:04:05;;;;;;;3.20;2.83;;;17.30;55.60;18.50;100672.00;;;;4967991;28;20224;-52
2022/06/01 08:06:31;;;;;;;3.60;2.87;;;17.30;55.50;18.50;100673.00;;;;4971677;28;20206;-50
2022/06/01 08:08:57;;;;;;;5.60;2.90;;;17.30;55.50;18.50;100675.00;;;;4988395;28;20188;-51
2022/06/01 08:13:06;;;;;;;3.53;2.60;;;17.30;55.50;18.50;100669.00;;;;4988646;28;20208;-52
2022/06/01 08:14:10;;;;;;;3.83;3.00;;;17.30;55.70;18.50;100669.00;;;;4987496;28;20182;-50
2022/06/01 08:16:38;;;;;;;4.77;2.90;;;17.30;55.70;18.50;100678.00;;;;4924013;28;20182;-52
2022/06/01 08:19:07;;;;;;;3.13;2.50;;;17.20;55.60;18.50;100678.00;;;;4989703;28;20232;-51
2022/06/01 08:21:34;;;;;;;3.87;2.60;;;17.30;55.60;18.50;100671.00;;;;4991950;28;20683;-51
2022/06/01 08:24:00;;;;;;;2.90;2.60;;;17.30;55.40;18.50;100680.00;;;;4992317;28;20173;-50
2022/06/01 08:26:25;;;;;;;4.00;2.40;;;17.30;55.40;18.50;100684.00;;;;4733471;28;20462;-50
2022/06/01 08:28:51;;;;;;;3.00;2.27;;;17.30;55.50;18.50;100670.00;;;;4990382;28;20213;-50
2022/06/01 08:31:17;;;;;;;3.70;2.60;;;17.30;55.60;18.50;100683.00;;;;4992229;28;20184;-50
2022/06/01 08:33:42;;;;;;;3.50;2.43;;;17.30;55.50;18.50;100673.00;;;;4991062;28;20589;-51
2022/06/01 08:36:08;;;;;;;2.90;2.40;;;17.20;55.50;18.50;100681.00;;;;4991774;28;20747;-50
2022/06/01 08:38:34;;;;;;;4.53;2.47;;;17.30;55.40;18.50;100609.00;;;;4991492;28;20182;-50
2022/06/01 08:41:04;;;;;;;2.40;2.20;;;17.30;55.30;18.50;100679.00;;;;4991738;28;20261;-51
2022/06/01 08:43:34;;;;;;;4.23;2.60;;;17.30;55.30;18.50;100688.00;;;;4974371;28;20162;-51
2022/06/01 08:46:00;;;;;;;2.60;2.37;;;17.30;55.60;18.50;100683.00;;;;4990746;28;20601;-50
2022/06/01 08:48:40;;;;;;;3.03;2.73;;;17.30;55.30;18.50;100679.00;;;;4974369;28;20216;-51
2022/06/01 08:51:06;;;;;;;3.37;2.50;;;17.20;55.10;18.50;100682.00;;;;4974884;28;20220;-50
2022/06/01 08:53:32;;;;;;;3.23;2.57;;;17.30;55.20;18.50;100683.00;;;;4990960;28;20207;-51
2022/06/01 08:56:11;;;;;;;2.93;2.57;;;17.20;55.10;18.50;100684.00;;;;4991581;28;20215;-51
2022/06/01 08:59:02;;;;;;;3.60;2.40;;;17.30;55.10;18.50;100683.00;;;;4989658;28;20756;-50
2022/06/01 09:01:44;;;;;;;3.27;2.10;;;17.30;55.10;18.40;100694.00;;;;4991328;28;20676;-51
2022/06/01 09:04:41;;;;;;;3.87;2.40;;;17.30;55.10;18.40;100689.00;;;;4990407;28;20818;-50
2022/06/01 09:07:23;;;;;;;2.30;2.10;;;17.20;54.80;18.40;100696.00;;;;4976147;28;20180;-50
2022/06/01 09:10:03;;;;;;;2.30;2.10;;;17.20;54.80;18.40;100683.00;;;;4975367;28;20157;-49
2022/06/01 09:12:29;;;;;;;2.37;2.03;;;17.30;54.80;18.40;100688.00;;;;4974415;28;20656;-49
2022/06/01 09:14:56;;;;;;;4.10;2.13;;;17.30;54.70;18.40;100683.00;;;;4990292;28;20165;-51
2022/06/01 09:17:22;;;;;;;2.30;2.10;;;17.30;55.00;18.40;100693.00;;;;4990074;28;20187;-50
2022/06/01 09:22:37;;;;;;;3.87;2.20;;;17.20;54.50;18.40;100705.00;;;;4976590;28;20187;-50
2022/06/01 09:25:13;;;;;;;3.57;2.23;;;17.20;54.50;18.40;100694.00;;;;4990983;28;20153;-50
2022/06/01 09:27:45;;;;;;;3.23;2.37;;;17.20;54.40;18.40;100691.00;;;;4948441;28;20626;-51
2022/06/01 09:30:24;;;;;;;3.23;2.33;;;17.20;54.60;18.40;100687.00;;;;4990364;28;20245;-51
2022/06/01 09:33:24;;;;;;;2.77;2.30;;;17.20;54.80;18.40;100680.00;;;;5002027;28;20176;-48
2022/06/01 09:36:07;;;;;;;2.53;2.30;;;17.20;55.10;18.50;100680.00;;;;4991498;28;20529;-46
2022/06/01 09:38:46;;;;;;;2.27;2.07;;;17.30;55.20;18.50;100682.00;;;;4990325;28;20165;-46
2022/06/01 09:41:26;;;;;;;2.90;1.97;;;17.40;55.40;18.60;100690.00;;;;4990758;28;20618;-45
2022/06/01 09:44:07;;;;;;;3.73;2.03;;;17.50;55.70;18.60;100672.00;;;;4990499;28;20169;-47
2022/06/01 09:46:37;;;;;;;3.83;2.00;;;17.50;55.80;18.60;100683.00;;;;4989421;28;20704;-46
2022/06/01 09:49:17;;;;;;;5.00;1.90;;;17.50;55.80;18.70;100682.00;;;;4990194;28;20178;-46
2022/06/01 09:51:43;;;;;;;2.67;1.90;;;17.60;56.10;18.70;100671.00;;;;4975110;28;20192;-46
2022/06/01 09:54:15;;;;;;;2.97;1.87;;;17.60;56.20;18.70;100681.00;;;;4972797;28;20170;-46
2022/06/01 09:56:47;;;;;;;2.37;2.00;;;17.60;56.20;18.80;100668.00;;;;4989273;28;20560;-46
2022/06/01 10:08:14;;;;;;;2.00;1.70;;;17.70;56.40;18.90;100677.00;;;;4989262;28;20530;-46
2022/06/01 10:10:39;;;;;;;4.17;2.03;;;17.80;56.50;18.90;100679.00;;;;4988925;28;20208;-46
2022/06/01 10:13:06;;;;;;;2.67;1.90;;;17.80;56.50;18.90;100682.00;;;;4972859;28;20167;-47
2022/06/01 10:15:44;;;;;;;2.57;2.10;;;17.80;56.50;18.90;100680.00;;;;4989355;28;20261;-46
2022/06/01 10:18:23;;;;;;;1.70;1.60;;;17.80;56.60;19.00;100681.00;;;;4989295;28;20301;-47
2022/06/01 10:21:06;;;;;;;1.70;1.60;;;17.80;56.60;19.00;100681.00;;;;4991791;28;20219;-48
2022/06/01 10:23:47;;;;;;;2.00;1.80;;;17.80;56.60;19.00;100689.00;;;;4974379;28;20868;-46
2022/06/01 10:26:39;;;;;;;2.30;1.90;;;17.80;56.60;19.10;100681.00;;;;4906311;28;20628;-46
2022/06/01 10:29:19;;;;;;;2.27;1.73;;;17.90;56.70;19.10;100681.00;;;;4988675;28;20167;-47
2022/06/01 10:31:53;;;;;;;1.90;1.70;;;17.90;56.70;19.10;100686.00;;;;4988336;28;20202;-46
2022/06/01 10:34:30;;;;;;;2.20;1.70;;;17.90;56.70;19.10;100668.00;;;;4973387;28;20641;-46
2022/06/01 10:37:17;;;;;;;1.83;1.70;;;17.90;56.60;19.10;100687.00;;;;4988330;28;20154;-46
2022/06/01 10:40:01;;;;;;;1.70;1.60;;;18.00;56.80;19.10;100689.00;;;;4988587;28;20256;-46
2022/06/01 10:45:26;;;;;;;2.27;1.80;;;18.00;56.80;19.20;100689.00;;;;4976621;28;20663;-46
2022/06/01 10:48:27;;;;;;;1.70;1.60;;;18.00;56.80;19.20;100690.00;;;;4972291;28;20176;-46
2022/06/01 10:50:57;;;;;;;1.93;1.70;;;18.00;56.70;19.20;100694.00;;;;4988691;28;20202;-46
2022/06/01 10:53:33;;;;;;;1.70;1.60;;;18.10;57.50;19.20;100694.00;;;;4988343;28;20273;-46
2022/06/01 10:55:59;;;;;;;2.00;1.80;;;18.10;56.80;19.30;100678.00;;;;4972878;28;20647;-46
2022/06/01 10:58:25;;;;;;;1.80;1.63;;;18.10;56.90;19.30;100684.00;;;;4989026;28;20160;-46
2022/06/01 11:01:17;;;;;;;2.13;1.77;;;18.00;56.70;19.30;100685.00;;;;4987768;28;20252;-46
2022/06/01 11:04:17;;;;;;;2.10;1.60;;;18.10;56.70;19.30;100684.00;;;;4987674;28;20303;-46
2022/06/01 11:07:09;;;;;;;1.80;1.70;;;18.10;56.70;19.30;100672.00;;;;4987996;28;20191;-46
2022/06/01 11:09:45;;;;;;;1.70;1.60;;;18.20;56.80;19.30;100670.00;;;;4989174;28;20239;-46
2022/06/01 11:12:31;;;;;;;1.60;1.50;;;18.20;56.80;19.40;100675.00;;;;4972417;28;20190;-46
2022/06/01 11:15:23;;;;;;;1.70;1.60;;;18.20;56.60;19.40;100684.00;;;;4974092;28;20615;-46
2022/06/01 11:18:29;;;;;;;1.83;1.60;;;18.20;56.60;19.40;100673.00;;;;4988056;28;20175;-46
2022/06/01 11:21:00;;;;;;;2.77;1.67;;;18.20;56.60;19.40;100679.00;;;;4987381;28;20207;-46
2022/06/01 11:24:06;;;;;;;1.70;1.60;;;18.20;56.60;19.40;100679.00;;;;4987944;28;20183;-45
2022/06/01 11:27:12;;;;;;;1.70;1.60;;;18.20;56.50;19.50;100686.00;;;;4787852;28;20224;-47
2022/06/01 11:30:02;;;;;;;2.47;1.63;;;18.30;56.70;19.50;100680.00;;;;4984314;28;20188;-46
2022/06/01 11:33:15;;;;;;;3.30;1.53;;;18.30;56.80;19.50;100682.00;;;;4988919;28;20182;-47